Time;durP1;ratioP1;P1;durP2;ratioP2;P2;SDS_P1;SDS_P2;PMS_P1;PMS_P2;Temp;Humidity;BMP_temperature;BMP_pressure;BME280_temperature;BME280_humidity;BME280_pressure;Samples;Min_cycle;Max_cycle;Signal;HPM_P1;HPM_P2
2022/11/10 00:01:06;;;;;;;2.63;2.13;;;10.80;99.90;;;;;;5020004;28;20101;-73
2022/11/10 00:03:32;;;;;;;4.22;2.90;;;10.80;99.90;;;;;;5025120;28;20049;-72
2022/11/10 00:06:04;;;;;;;3.47;2.63;;;10.80;99.90;;;;;;5022499;28;20096;-72
2022/11/10 00:08:32;;;;;;;2.92;1.92;;;10.80;99.90;;;;;;5022604;28;20025;-72
2022/11/10 00:11:00;;;;;;;4.05;2.30;;;10.80;99.90;;;;;;5018788;28;20130;-73
2022/11/10 00:13:32;;;;;;;2.25;2.05;;;10.80;99.90;;;;;;5021699;28;20107;-72
2022/11/10 00:18:47;;;;;;;2.05;1.85;;;10.80;99.90;;;;;;5019996;28;20123;-72
2022/11/10 00:21:14;;;;;;;3.70;2.25;;;10.80;99.90;;;;;;5060675;28;20029;-73
2022/11/10 00:23:41;;;;;;;4.03;2.42;;;10.70;99.90;;;;;;5059680;28;20021;-72
2022/11/10 00:26:11;;;;;;;4.05;2.22;;;10.70;99.90;;;;;;5062412;28;20401;-74
2022/11/10 00:28:37;;;;;;;3.40;2.00;;;10.70;99.90;;;;;;5065527;28;20025;-73
2022/11/10 00:31:06;;;;;;;2.75;1.90;;;10.70;99.90;;;;;;5057604;28;20078;-75
2022/11/10 00:33:34;;;;;;;4.80;1.92;;;10.70;99.90;;;;;;5061696;28;20532;-71
2022/11/10 00:36:00;;;;;;;5.20;2.15;;;10.70;99.90;;;;;;5041221;28;20036;-74
2022/11/10 00:38:25;;;;;;;4.68;2.20;;;10.70;99.90;;;;;;5061271;28;20025;-72
2022/11/10 00:40:51;;;;;;;3.63;1.90;;;10.70;99.90;;;;;;5063214;28;20035;-72
2022/11/10 00:43:16;;;;;;;3.30;1.67;;;10.70;99.90;;;;;;5068970;28;20033;-71
2022/11/10 00:45:43;;;;;;;8.00;2.05;;;10.70;99.90;;;;;;5069564;28;20025;-71
2022/11/10 00:48:08;;;;;;;2.45;2.00;;;10.70;99.90;;;;;;5062198;28;20020;-72
2022/11/10 00:50:34;;;;;;;2.25;1.88;;;10.60;99.90;;;;;;5069568;28;20052;-72
2022/11/10 00:52:59;;;;;;;3.20;2.10;;;10.60;99.90;;;;;;5069760;28;20082;-72
2022/11/10 00:55:25;;;;;;;3.65;2.13;;;10.60;99.90;;;;;;5070474;28;20037;-72
2022/11/10 00:57:50;;;;;;;3.03;2.13;;;10.60;99.90;;;;;;5064243;28;20066;-72
2022/11/10 01:00:16;;;;;;;5.10;2.63;;;10.60;99.90;;;;;;5067876;28;20048;-73
2022/11/10 01:02:42;;;;;;;4.93;2.33;;;10.60;99.90;;;;;;5069690;28;20107;-73
2022/11/10 01:05:08;;;;;;;3.20;2.35;;;10.60;99.90;;;;;;5055326;28;20032;-70
2022/11/10 01:07:33;;;;;;;6.43;2.70;;;10.60;99.90;;;;;;5069766;28;20536;-72
2022/11/10 01:09:59;;;;;;;4.65;2.28;;;10.60;99.90;;;;;;5068330;28;20024;-73
2022/11/10 01:12:28;;;;;;;5.80;2.10;;;10.60;99.90;;;;;;5057889;28;20075;-72
2022/11/10 01:14:54;;;;;;;3.10;2.10;;;10.60;99.90;;;;;;5066036;28;20133;-72
2022/11/10 01:17:20;;;;;;;4.10;2.40;;;10.60;99.90;;;;;;5061566;28;20637;-72
2022/11/10 01:19:45;;;;;;;6.53;2.42;;;10.60;99.90;;;;;;5069119;28;20048;-72
2022/11/10 01:22:11;;;;;;;8.27;2.55;;;10.60;99.90;;;;;;5061055;28;20112;-72
2022/11/10 01:24:36;;;;;;;12.77;2.83;;;10.50;99.90;;;;;;5069443;28;20583;-72
2022/11/10 01:27:02;;;;;;;6.30;2.08;;;10.50;99.90;;;;;;5045506;28;20029;-74
2022/11/10 01:29:28;;;;;;;7.68;2.13;;;10.50;99.90;;;;;;5072219;28;20032;-72
2022/11/10 01:31:53;;;;;;;5.10;2.30;;;10.50;99.90;;;;;;5071150;28;20526;-72
2022/11/10 01:34:19;;;;;;;6.25;1.92;;;10.50;99.90;;;;;;5069485;28;20032;-73
2022/11/10 01:36:44;;;;;;;5.18;2.17;;;10.40;99.90;;;;;;5064212;28;20025;-73
2022/11/10 01:39:10;;;;;;;8.68;2.15;;;10.40;99.90;;;;;;5064631;28;20489;-72
2022/11/10 01:41:35;;;;;;;10.15;2.53;;;10.30;99.90;;;;;;5072750;28;20390;-72
2022/11/10 01:44:19;;;;;;;3.75;1.80;;;10.30;99.90;;;;;;5072594;28;20071;-72
2022/11/10 01:46:45;;;;;;;4.50;2.08;;;10.30;99.90;;;;;;5071708;28;20020;-72
2022/11/10 01:49:13;;;;;;;6.00;2.00;;;10.20;99.90;;;;;;5067721;28;20389;-73
2022/11/10 01:51:50;;;;;;;3.00;2.03;;;10.10;99.90;;;;;;5072299;28;20055;-72
2022/11/10 01:54:21;;;;;;;6.03;2.67;;;10.10;99.90;;;;;;5064127;28;20052;-73
2022/11/10 01:56:50;;;;;;;5.05;2.15;;;10.00;99.90;;;;;;5060942;28;20154;-72
2022/11/10 01:59:23;;;;;;;7.00;2.92;;;10.00;99.90;;;;;;5071911;28;20385;-72
2022/11/10 02:01:52;;;;;;;7.28;3.03;;;9.90;99.90;;;;;;5071169;28;20097;-72
2022/11/10 02:04:19;;;;;;;8.60;2.85;;;9.90;99.90;;;;;;5061841;28;20074;-73
2022/11/10 02:06:47;;;;;;;12.45;3.47;;;9.90;99.90;;;;;;5071279;28;20033;-72
2022/11/10 02:09:13;;;;;;;8.90;2.90;;;9.80;99.90;;;;;;5070966;28;20107;-72
2022/11/10 02:11:40;;;;;;;9.50;2.88;;;9.70;99.90;;;;;;5061415;28;20462;-72
2022/11/10 02:14:07;;;;;;;10.50;3.35;;;9.70;99.90;;;;;;5060848;28;20043;-74
2022/11/10 02:16:34;;;;;;;5.25;2.25;;;9.70;99.90;;;;;;5071692;28;20024;-72
2022/11/10 02:19:22;;;;;;;9.73;3.08;;;9.60;99.90;;;;;;5072711;28;20107;-72
2022/11/10 02:21:48;;;;;;;6.65;3.10;;;;;;;;;;5075469;28;20024;-72
2022/11/10 02:24:14;;;;;;;7.22;2.53;;;;;;;;;;5071463;28;20384;-71
2022/11/10 02:26:43;;;;;;;7.47;2.70;;;;;;;;;;5070597;28;20114;-72
2022/11/10 02:29:09;;;;;;;7.05;2.80;;;;;;;;;;5061157;28;20036;-69
2022/11/10 02:31:35;;;;;;;5.53;2.72;;;;;;;;;;5071229;28;20103;-71
2022/11/10 02:34:01;;;;;;;5.93;2.50;;;;;;;;;;5072109;28;20056;-72
2022/11/10 02:36:27;;;;;;;8.13;2.88;;;;;;;;;;5068309;28;20276;-72
2022/11/10 02:38:53;;;;;;;7.35;3.03;;;;;;;;;;5068581;28;20039;-72
2022/11/10 02:41:19;;;;;;;7.63;3.10;;;;;;;;;;5065931;28;20027;-72
2022/11/10 02:43:45;;;;;;;4.97;3.03;;;;;;;;;;5071688;28;20020;-72
2022/11/10 02:46:11;;;;;;;4.72;2.80;;;;;;;;;;5044444;28;20389;-72
2022/11/10 02:48:37;;;;;;;8.18;3.30;;;;;;;;;;5067477;28;20037;-72
2022/11/10 02:51:03;;;;;;;12.20;3.53;;;;;;;;;;5071618;28;20107;-71
2022/11/10 02:53:29;;;;;;;12.75;3.55;;;;;;;;;;5072425;28;20020;-72
2022/11/10 02:55:55;;;;;;;8.00;3.13;;;;;;;;;;5063844;28;20400;-73
2022/11/10 02:58:21;;;;;;;8.10;2.80;;;;;;;;;;5071191;28;20024;-70
2022/11/10 03:00:47;;;;;;;6.93;2.95;;;;;;;;;;5068326;28;20130;-71
2022/11/10 03:03:13;;;;;;;6.82;3.05;;;;;;;;;;5059813;28;20052;-71
2022/11/10 03:05:39;;;;;;;10.85;3.22;;;;;;;;;;5070572;28;20056;-72
2022/11/10 03:08:05;;;;;;;8.77;3.55;;;;;;;;;;5071299;28;20029;-73
2022/11/10 03:10:31;;;;;;;6.20;2.60;;;;;;;;;;5066660;28;20029;-71
2022/11/10 03:12:59;;;;;;;6.47;2.85;;;;;;;;;;5065330;28;20032;-71
2022/11/10 03:15:25;;;;;;;7.97;3.35;;;;;;;;;;5070023;28;20481;-73
2022/11/10 03:17:51;;;;;;;8.18;2.63;;;;;;;;;;5066252;28;20037;-72
2022/11/10 03:20:18;;;;;;;12.40;3.85;;;;;;;;;;5047774;28;20064;-72
2022/11/10 03:22:44;;;;;;;8.43;3.38;;;;;;;;;;5073930;28;20037;-71
2022/11/10 03:25:10;;;;;;;7.35;3.22;;;;;;;;;;5067362;28;20024;-74
2022/11/10 03:27:36;;;;;;;12.68;2.90;;;;;;;;;;5062873;28;20024;-71
2022/11/10 03:30:03;;;;;;;9.93;3.20;;;;;;;;;;5070084;28;20064;-72
2022/11/10 03:32:29;;;;;;;13.13;3.80;;;;;;;;;;5068944;28;20028;-72
2022/11/10 03:34:55;;;;;;;8.10;2.97;;;;;;;;;;5063654;28;20029;-71
2022/11/10 03:37:21;;;;;;;9.38;3.13;;;;;;;;;;5066507;28;20371;-72
2022/11/10 03:39:47;;;;;;;10.50;3.38;;;;;;;;;;5070860;28;20104;-71
2022/11/10 03:42:13;;;;;;;10.32;3.55;;;;;;;;;;5069769;28;20035;-71
2022/11/10 03:44:39;;;;;;;14.23;3.35;;;;;;;;;;5052615;28;20020;-72
2022/11/10 03:47:05;;;;;;;14.38;3.28;;;;;;;;;;5069445;28;20359;-72
2022/11/10 03:49:31;;;;;;;6.40;2.45;;;;;;;;;;5068598;28;20127;-73
2022/11/10 03:51:57;;;;;;;8.00;2.80;;;;;;;;;;5069407;28;20749;-73
2022/11/10 03:54:23;;;;;;;5.28;2.58;;;;;;;;;;5069976;28;20028;-73
2022/11/10 03:56:49;;;;;;;9.63;2.90;;;;;;;;;;5052330;28;20036;-71
2022/11/10 03:59:15;;;;;;;14.00;2.90;;;;;;;;;;5068162;28;20028;-71
2022/11/10 04:01:41;;;;;;;8.57;3.08;;;;;;;;;;5068420;28;20108;-72
2022/11/10 04:08:57;;;;;;;6.85;3.00;;;;;;;;;;5060408;28;20045;-70
2022/11/10 04:09:37;;;;;;;13.40;3.47;;;;;;;;;;5055081;28;20039;-72
2022/11/10 04:17:32;;;;;;;10.30;3.22;;;;;;;;;;5070077;28;20040;-71
2022/11/10 04:19:59;;;;;;;6.47;2.97;;;;;;;;;;5057601;28;20053;-71
2022/11/10 04:25:09;;;;;;;8.35;3.50;;;;;;;;;;5064677;28;20107;-74
2022/11/10 04:27:35;;;;;;;11.07;3.38;;;;;;;;;;5064913;28;20017;-71
2022/11/10 04:30:01;;;;;;;8.18;3.05;;;;;;;;;;5043119;28;20540;-71
2022/11/10 04:32:27;;;;;;;12.00;2.95;;;;;;;;;;5068323;28;20037;-71
2022/11/10 04:34:53;;;;;;;7.15;3.15;;;;;;;;;;5058547;28;20458;-72
2022/11/10 04:37:19;;;;;;;10.02;3.40;;;;;;;;;;5058691;28;20021;-72
2022/11/10 04:39:45;;;;;;;11.23;2.67;;;;;;;;;;5070563;28;20024;-73
2022/11/10 04:42:11;;;;;;;6.35;2.95;;;;;;;;;;5066180;28;20166;-76
2022/11/10 04:44:37;;;;;;;9.23;3.13;;;;;;;;;;5059093;28;20146;-73
2022/11/10 04:47:03;;;;;;;5.90;3.25;;;;;;;;;;5063806;28;20492;-72
2022/11/10 04:49:29;;;;;;;5.93;2.97;;;;;;;;;;5068052;28;20039;-72
2022/11/10 04:51:55;;;;;;;7.13;2.72;;;;;;;;;;5068407;28;20032;-72
2022/11/10 04:54:21;;;;;;;9.48;2.85;;;;;;;;;;5052589;28;20032;-73
2022/11/10 04:56:47;;;;;;;12.77;3.33;;;;;;;;;;5066716;28;20024;-72
2022/11/10 04:59:13;;;;;;;9.23;3.05;;;;;;;;;;5069592;28;20039;-78
2022/11/10 05:01:39;;;;;;;14.73;3.53;;;;;;;;;;5070800;28;20474;-71
2022/11/10 05:04:05;;;;;;;10.70;3.63;;;;;;;;;;5067106;28;20107;-70
2022/11/10 05:06:30;;;;;;;8.15;3.38;;;8.70;99.90;;;;;;5072248;28;20093;-71
2022/11/10 05:08:56;;;;;;;6.90;3.33;;;8.80;99.90;;;;;;5074280;28;20086;-72
2022/11/10 05:11:21;;;;;;;11.55;3.88;;;8.60;99.90;;;;;;5071365;28;20037;-72
2022/11/10 05:13:47;;;;;;;6.72;3.10;;;8.50;99.90;;;;;;5066280;28;20025;-72
2022/11/10 05:16:13;;;;;;;6.68;3.13;;;8.40;99.90;;;;;;5062564;28;20071;-74
2022/11/10 05:18:39;;;;;;;7.85;3.50;;;8.30;99.90;;;;;;5062463;28;20029;-71
2022/11/10 05:21:05;;;;;;;11.18;4.45;;;8.20;99.90;;;;;;5067276;28;20104;-72
2022/11/10 05:23:36;;;;;;;9.60;4.28;;;8.10;99.90;;;;;;5069094;28;20103;-72
2022/11/10 05:26:04;;;;;;;14.68;4.38;;;8.00;99.90;;;;;;5063802;28;20025;-71
2022/11/10 05:28:30;;;;;;;10.20;4.72;;;8.00;99.90;;;;;;5061116;28;20131;-72
2022/11/10 05:30:55;;;;;;;11.30;4.25;;;8.00;99.90;;;;;;5068629;28;20445;-72
2022/11/10 05:33:21;;;;;;;15.40;4.45;;;7.90;99.90;;;;;;5069507;28;20470;-72
2022/11/10 05:35:48;;;;;;;10.00;3.83;;;7.90;99.90;;;;;;5054317;28;20136;-72
2022/11/10 05:38:14;;;;;;;10.18;4.43;;;7.90;99.90;;;;;;5069697;28;20060;-74
2022/11/10 05:40:40;;;;;;;8.60;4.15;;;7.90;99.90;;;;;;5064581;28;20067;-72
2022/11/10 05:43:05;;;;;;;9.93;4.70;;;7.90;99.90;;;;;;5070633;28;20108;-72
2022/11/10 05:45:31;;;;;;;6.28;4.32;;;7.80;99.90;;;;;;5070918;28;20028;-72
2022/11/10 05:47:57;;;;;;;13.98;4.53;;;7.80;99.90;;;;;;5073257;28;20029;-71
2022/11/10 05:50:23;;;;;;;11.63;5.18;;;7.70;99.90;;;;;;5069211;28;20029;-71
2022/11/10 05:52:51;;;;;;;9.35;4.05;;;7.70;99.90;;;;;;5060378;28;20087;-74
2022/11/10 05:55:20;;;;;;;13.05;5.25;;;7.70;99.90;;;;;;5044712;28;20089;-72
2022/11/10 05:57:47;;;;;;;9.10;4.20;;;7.70;99.90;;;;;;5062973;28;20021;-72
2022/11/10 06:00:15;;;;;;;12.60;4.20;;;7.70;99.90;;;;;;5064929;28;20458;-75
2022/11/10 06:02:42;;;;;;;8.93;3.65;;;7.70;99.90;;;;;;5062798;28;20033;-72
2022/11/10 06:05:08;;;;;;;17.08;3.75;;;7.80;99.90;;;;;;5064723;28;20027;-73
2022/11/10 06:07:34;;;;;;;6.85;3.53;;;7.80;99.90;;;;;;5063722;28;20028;-72
2022/11/10 06:09:59;;;;;;;10.80;4.05;;;7.80;99.90;;;;;;5062971;28;20032;-73
2022/11/10 06:12:29;;;;;;;10.80;3.55;;;7.80;99.90;;;;;;5065022;28;20461;-73
2022/11/10 06:14:55;;;;;;;10.25;3.65;;;7.80;99.90;;;;;;5062837;28;20020;-74
2022/11/10 06:17:21;;;;;;;8.57;3.85;;;7.80;99.90;;;;;;5064238;28;20505;-72
2022/11/10 06:19:46;;;;;;;7.90;4.13;;;7.80;99.90;;;;;;5072562;28;20120;-71
2022/11/10 06:22:12;;;;;;;15.90;4.22;;;7.70;99.90;;;;;;5076365;28;20381;-76
2022/11/10 06:24:37;;;;;;;8.00;3.85;;;7.70;99.90;;;;;;5053156;28;20370;-78
2022/11/10 06:27:03;;;;;;;14.27;5.13;;;7.70;99.90;;;;;;5067148;28;20028;-71
2022/11/10 06:29:29;;;;;;;13.68;4.68;;;7.70;99.90;;;;;;5075516;28;20033;-71
2022/11/10 06:31:54;;;;;;;17.50;3.95;;;7.70;99.90;;;;;;5078366;28;20024;-71
2022/11/10 06:34:20;;;;;;;6.22;3.45;;;7.70;99.90;;;;;;5075328;28;20028;-73
2022/11/10 06:36:45;;;;;;;9.85;3.42;;;7.80;99.90;;;;;;5075250;28;20056;-75
2022/11/10 06:39:11;;;;;;;13.82;4.72;;;7.80;99.90;;;;;;5073766;28;20037;-74
2022/11/10 06:41:37;;;;;;;11.32;3.35;;;7.80;99.90;;;;;;5071749;28;20029;-76
2022/11/10 06:44:02;;;;;;;12.07;4.68;;;7.80;99.90;;;;;;5070276;28;20037;-72
2022/11/10 06:46:28;;;;;;;10.00;4.45;;;7.80;99.90;;;;;;5070723;28;20036;-76
2022/11/10 06:48:53;;;;;;;13.88;4.82;;;7.80;99.90;;;;;;5067302;28;20043;-69
2022/11/10 06:51:19;;;;;;;8.82;4.20;;;7.90;99.90;;;;;;5069798;28;20060;-71
2022/11/10 06:53:45;;;;;;;6.32;3.63;;;7.90;99.90;;;;;;5074853;28;20031;-73
2022/11/10 06:56:10;;;;;;;12.80;4.47;;;7.90;99.90;;;;;;5069154;28;20392;-72
2022/11/10 06:58:36;;;;;;;8.30;4.07;;;7.90;99.90;;;;;;5043723;28;20135;-74
2022/11/10 07:01:01;;;;;;;12.02;4.45;;;8.00;99.90;;;;;;5064621;28;20512;-75
2022/11/10 07:03:27;;;;;;;7.60;3.83;;;8.00;99.90;;;;;;5070831;28;20054;-73
2022/11/10 07:05:53;;;;;;;9.52;4.30;;;8.00;99.90;;;;;;5069452;28;20445;-73
2022/11/10 07:08:18;;;;;;;9.70;4.22;;;8.00;99.90;;;;;;5070918;28;20036;-74
2022/11/10 07:10:51;;;;;;;10.88;3.78;;;8.00;99.90;;;;;;5069948;28;20037;-74
2022/11/10 07:13:17;;;;;;;11.50;4.30;;;8.10;99.90;;;;;;5066275;28;20108;-79
2022/11/10 07:15:43;;;;;;;9.00;4.13;;;8.10;99.90;;;;;;5060067;28;20112;-75
2022/11/10 07:18:08;;;;;;;6.85;3.47;;;8.30;99.90;;;;;;5071289;28;20465;-73
2022/11/10 07:20:34;;;;;;;7.68;4.05;;;8.30;99.90;;;;;;5074604;28;20119;-74
2022/11/10 07:23:02;;;;;;;7.60;4.50;;;8.40;99.90;;;;;;5072531;28;20028;-73
2022/11/10 07:25:30;;;;;;;9.20;4.38;;;8.50;99.90;;;;;;5066824;28;20021;-74
2022/11/10 07:28:01;;;;;;;7.18;3.40;;;8.50;99.90;;;;;;5067974;28;20429;-71
2022/11/10 07:30:28;;;;;;;8.20;3.05;;;8.60;99.90;;;;;;5067936;28;20041;-73
2022/11/10 07:33:15;;;;;;;8.65;3.42;;;8.60;99.90;;;;;;5070942;28;20123;-77
2022/11/10 07:35:41;;;;;;;9.38;2.90;;;8.70;99.90;;;;;;5063076;28;20036;-73
2022/11/10 07:38:10;;;;;;;9.23;3.03;;;8.70;99.90;;;;;;5071199;28;20483;-73
2022/11/10 07:40:36;;;;;;;10.02;3.22;;;8.70;99.90;;;;;;5065299;28;20025;-74
2022/11/10 07:43:02;;;;;;;6.63;2.55;;;8.80;99.90;;;;;;5071508;28;20056;-72
2022/11/10 07:45:28;;;;;;;6.07;2.55;;;8.90;99.90;;;;;;5069580;28;20505;-73
2022/11/10 07:47:58;;;;;;;4.50;2.47;;;9.00;99.90;;;;;;5068901;28;20059;-72
2022/11/10 07:50:24;;;;;;;7.80;2.45;;;9.00;99.90;;;;;;5069608;28;20043;-76
2022/11/10 07:52:50;;;;;;;6.03;2.13;;;9.10;99.90;;;;;;5057104;28;20048;-72
2022/11/10 07:55:15;;;;;;;8.10;2.55;;;9.20;99.90;;;;;;5058006;28;20037;-79
2022/11/10 07:57:41;;;;;;;9.02;2.40;;;9.20;99.90;;;;;;5070358;28;20103;-73
2022/11/10 08:00:07;;;;;;;9.70;2.90;;;9.30;99.90;;;;;;5068778;28;20036;-73
2022/11/10 08:02:33;;;;;;;5.18;1.88;;;9.40;99.90;;;;;;5075987;28;20850;-73
2022/11/10 08:04:58;;;;;;;7.47;2.05;;;9.40;99.90;;;;;;5069487;28;20033;-73
2022/11/10 08:07:24;;;;;;;6.72;2.65;;;9.50;99.90;;;;;;5068710;28;20040;-72
2022/11/10 08:09:49;;;;;;;3.83;1.92;;;9.60;99.90;;;;;;5061871;28;20127;-73
2022/11/10 08:12:17;;;;;;;5.53;2.30;;;9.60;99.90;;;;;;5065167;28;20044;-75
2022/11/10 08:14:43;;;;;;;7.85;2.13;;;9.70;99.90;;;;;;5063840;28;20037;-73
2022/11/10 08:17:08;;;;;;;5.97;1.90;;;9.80;99.90;;;;;;5042078;28;20029;-73
2022/11/10 08:19:34;;;;;;;8.82;2.35;;;9.80;99.90;;;;;;5046116;28;20083;-72
2022/11/10 08:21:59;;;;;;;6.85;1.98;;;9.90;99.90;;;;;;5066794;28;20115;-73
2022/11/10 08:24:25;;;;;;;5.65;2.13;;;10.00;99.90;;;;;;5064693;28;20331;-74
2022/11/10 08:26:50;;;;;;;5.78;2.10;;;10.00;99.90;;;;;;5064503;28;20137;-72
2022/11/10 08:29:16;;;;;;;7.03;2.25;;;10.10;99.90;;;;;;5061990;28;20039;-77
2022/11/10 08:31:41;;;;;;;8.00;2.55;;;10.10;99.90;;;;;;5061805;28;20040;-74
2022/11/10 08:34:08;;;;;;;6.43;1.85;;;10.20;99.90;;;;;;5067688;28;20024;-73
2022/11/10 08:36:33;;;;;;;8.75;1.75;;;10.20;99.90;;;;;;5061700;28;20086;-74
2022/11/10 08:38:59;;;;;;;4.05;1.70;;;10.30;99.90;;;;;;5068814;28;20040;-72
2022/11/10 08:41:24;;;;;;;8.05;2.03;;;10.40;99.90;;;;;;5068132;28;20112;-72
2022/11/10 08:43:50;;;;;;;3.33;1.80;;;10.40;99.90;;;;;;5068297;28;20033;-74
2022/11/10 08:46:15;;;;;;;6.50;1.30;;;10.50;99.90;;;;;;5064549;28;20035;-77
2022/11/10 08:48:41;;;;;;;3.42;1.45;;;10.60;99.90;;;;;;5066902;28;20028;-72
2022/11/10 08:51:06;;;;;;;4.10;1.88;;;10.70;99.90;;;;;;5072897;28;20044;-73
2022/11/10 08:53:32;;;;;;;3.67;1.20;;;10.80;99.90;;;;;;5075231;28;20025;-73
2022/11/10 08:55:58;;;;;;;4.90;1.85;;;10.80;99.90;;;;;;5070483;28;20059;-73
2022/11/10 08:58:24;;;;;;;6.47;1.65;;;10.90;99.90;;;;;;5063187;28;20036;-73
2022/11/10 09:00:50;;;;;;;6.95;1.20;;;11.00;99.90;;;;;;5072004;28;20123;-73
2022/11/10 09:03:21;;;;;;;4.10;1.25;;;11.10;99.90;;;;;;5072903;28;20040;-76
2022/11/10 09:05:48;;;;;;;3.40;1.27;;;11.20;99.90;;;;;;5067377;28;20024;-72
2022/11/10 09:08:14;;;;;;;5.80;1.05;;;11.30;99.90;;;;;;5064946;28;20032;-77
2022/11/10 09:10:46;;;;;;;6.70;1.83;;;11.30;99.90;;;;;;5069799;28;20025;-73
2022/11/10 09:13:13;;;;;;;5.63;1.88;;;11.40;99.90;;;;;;5067921;28;20115;-73
2022/11/10 09:15:40;;;;;;;10.88;2.03;;;11.50;99.90;;;;;;5069591;28;20132;-72
2022/11/10 09:18:07;;;;;;;7.22;1.33;;;11.60;99.90;;;;;;5045862;28;20032;-73
2022/11/10 09:20:34;;;;;;;6.35;1.48;;;11.70;99.90;;;;;;5070191;28;20051;-73
2022/11/10 09:23:08;;;;;;;4.50;1.88;;;11.80;99.90;;;;;;5073184;28;20052;-73
2022/11/10 09:25:34;;;;;;;4.55;1.42;;;11.90;99.90;;;;;;5066945;28;20500;-73
2022/11/10 09:28:00;;;;;;;5.65;1.42;;;12.00;99.90;;;;;;5070450;28;20147;-73
2022/11/10 09:30:25;;;;;;;4.18;1.40;;;12.10;99.90;;;;;;5066792;28;20111;-73
2022/11/10 09:32:55;;;;;;;7.47;2.17;;;12.10;99.90;;;;;;5067362;28;20107;-73
2022/11/10 09:35:22;;;;;;;5.43;1.27;;;12.20;99.90;;;;;;5067196;28;20497;-73
2022/11/10 09:37:47;;;;;;;3.33;1.00;;;12.20;99.90;;;;;;5067829;28;20039;-73
2022/11/10 09:40:23;;;;;;;8.02;1.73;;;12.30;99.90;;;;;;5064798;28;20032;-76
2022/11/10 09:42:55;;;;;;;3.08;1.05;;;12.40;99.90;;;;;;5049596;28;20037;-73
2022/11/10 09:45:29;;;;;;;4.18;1.00;;;12.50;99.90;;;;;;5069124;28;20123;-72
2022/11/10 09:48:00;;;;;;;8.15;1.67;;;12.50;99.90;;;;;;5072782;28;20060;-72
2022/11/10 09:50:40;;;;;;;7.78;1.20;;;12.60;99.90;;;;;;5067456;28;20028;-74
2022/11/10 09:53:13;;;;;;;;;;;12.70;99.90;;;;;;5074024;28;20040;-73
2022/11/10 09:55:47;;;;;;;5.05;1.27;;;12.70;99.90;;;;;;5071996;28;19912;-73
2022/11/10 09:58:14;;;;;;;4.70;1.35;;;12.80;99.90;;;;;;5073138;28;20518;-76
2022/11/10 10:00:45;;;;;;;7.18;1.08;;;12.90;99.90;;;;;;5070524;28;20032;-73
2022/11/10 10:03:18;;;;;;;4.03;1.63;;;12.90;99.90;;;;;;5072557;28;20040;-74
2022/11/10 10:06:08;;;;;;;5.97;1.35;;;13.00;99.90;;;;;;5072201;28;20078;-73
2022/11/10 10:09:01;;;;;;;4.47;1.40;;;13.10;99.90;;;;;;5070413;28;20024;-72
2022/11/10 10:11:58;;;;;;;3.83;0.90;;;13.20;99.90;;;;;;5070346;28;20041;-73
2022/11/10 10:14:45;;;;;;;4.53;0.90;;;13.20;99.90;;;;;;5066844;28;20032;-74
2022/11/10 10:17:35;;;;;;;5.00;0.98;;;13.30;99.90;;;;;;5070497;28;20021;-74
2022/11/10 10:20:26;;;;;;;7.65;1.15;;;13.30;99.90;;;;;;5067213;28;20132;-73
2022/11/10 10:23:20;;;;;;;4.00;1.20;;;13.30;99.90;;;;;;5070738;28;20070;-74
2022/11/10 10:25:46;;;;;;;3.70;1.05;;;13.40;99.90;;;;;;5062158;28;20381;-75
2022/11/10 10:28:17;;;;;;;3.60;1.58;;;13.50;99.90;;;;;;5071457;28;20040;-73
2022/11/10 10:30:43;;;;;;;5.10;1.20;;;13.50;99.90;;;;;;5067193;28;20028;-74
2022/11/10 10:33:16;;;;;;;6.60;2.40;;;13.60;99.90;;;;;;5072795;28;20044;-72
2022/11/10 10:35:43;;;;;;;5.55;1.48;;;13.60;99.90;;;;;;5066203;28;20024;-72
2022/11/10 10:38:17;;;;;;;5.47;1.65;;;13.60;99.90;;;;;;5070633;28;20481;-73
2022/11/10 10:40:45;;;;;;;4.75;1.13;;;13.60;99.90;;;;;;5061042;28;20030;-73
2022/11/10 10:43:11;;;;;;;4.90;1.30;;;13.60;99.90;;;;;;5071710;28;20036;-72
2022/11/10 10:45:41;;;;;;;4.78;1.20;;;13.70;99.90;;;;;;5069903;28;20020;-72
2022/11/10 10:48:29;;;;;;;10.38;1.50;;;13.80;99.90;;;;;;5072266;28;20040;-72
2022/11/10 10:50:54;;;;;;;4.82;1.27;;;13.80;99.90;;;;;;5060840;28;20064;-74
2022/11/10 10:53:23;;;;;;;7.50;1.20;;;13.80;99.90;;;;;;5068969;28;20418;-72
2022/11/10 10:56:12;;;;;;;6.50;1.35;;;13.90;99.90;;;;;;5071193;28;20099;-74
2022/11/10 10:58:50;;;;;;;3.28;0.88;;;13.90;99.90;;;;;;5064269;28;20390;-72
2022/11/10 11:01:15;;;;;;;5.47;1.50;;;14.00;99.90;;;;;;5067728;28;20031;-78
2022/11/10 11:03:46;;;;;;;4.47;1.10;;;14.00;99.90;;;;;;5071520;28;20032;-73
2022/11/10 11:06:15;;;;;;;3.22;1.10;;;14.10;99.90;;;;;;5065461;28;20036;-73
2022/11/10 11:09:14;;;;;;;6.70;1.67;;;14.20;99.90;;;;;;5071432;28;20024;-73
2022/11/10 11:11:42;;;;;;;3.42;1.20;;;14.20;99.90;;;;;;5040542;28;20028;-74
2022/11/10 11:14:23;;;;;;;4.05;1.00;;;14.20;99.90;;;;;;5066740;28;20056;-74
2022/11/10 11:17:11;;;;;;;2.88;0.80;;;14.30;99.90;;;;;;5064384;28;20028;-74
2022/11/10 11:19:38;;;;;;;3.97;1.30;;;14.20;99.90;;;;;;5056573;28;20957;-75
2022/11/10 11:22:37;;;;;;;3.25;0.95;;;14.20;99.90;;;;;;5068508;28;20029;-74
2022/11/10 11:25:24;;;;;;;14.45;1.30;;;14.30;99.90;;;;;;5066981;28;20095;-75
2022/11/10 11:28:13;;;;;;;5.70;1.10;;;14.40;99.90;;;;;;5065934;28;20039;-73
2022/11/10 11:31:18;;;;;;;6.15;1.17;;;14.40;99.90;;;;;;5061579;28;20054;-72
2022/11/10 11:33:58;;;;;;;3.15;1.20;;;14.50;99.90;;;;;;5034400;28;20036;-74
2022/11/10 11:36:48;;;;;;;4.00;0.90;;;14.50;99.90;;;;;;5070004;28;20052;-73
2022/11/10 11:39:52;;;;;;;7.20;1.23;;;14.60;99.90;;;;;;5050926;28;20497;-76
2022/11/10 11:42:45;;;;;;;6.07;1.48;;;14.70;99.90;;;;;;5049899;28;20473;-73
2022/11/10 11:45:23;;;;;;;4.75;0.90;;;14.70;99.90;;;;;;5065150;28;20707;-74
2022/11/10 11:48:15;;;;;;;2.42;0.80;;;14.80;99.90;;;;;;5052561;28;20441;-72
2022/11/10 11:50:56;;;;;;;3.00;0.98;;;14.80;99.90;;;;;;5067240;28;20036;-73
2022/11/10 11:53:32;;;;;;;5.50;1.80;;;14.90;99.90;;;;;;5070672;28;20040;-73
2022/11/10 11:56:17;;;;;;;3.17;1.10;;;14.90;99.90;;;;;;5067404;28;20038;-74
2022/11/10 11:59:12;;;;;;;4.20;1.17;;;15.10;99.90;;;;;;5045930;28;20016;-74
2022/11/10 12:02:02;;;;;;;4.32;1.33;;;15.20;99.90;;;;;;5042119;28;20024;-72
2022/11/10 12:04:31;;;;;;;4.47;1.20;;;15.10;99.90;;;;;;5065065;28;20029;-73
2022/11/10 12:07:05;;;;;;;3.92;0.95;;;15.10;99.90;;;;;;5064758;28;20535;-73
2022/11/10 12:10:01;;;;;;;2.30;1.08;;;15.20;99.90;;;;;;5063521;28;20713;-73
2022/11/10 12:12:39;;;;;;;5.55;1.30;;;15.10;99.90;;;;;;5063470;28;20052;-73
2022/11/10 12:15:33;;;;;;;2.85;0.70;;;15.00;99.90;;;;;;5062988;28;20029;-72
2022/11/10 12:18:23;;;;;;;6.50;1.35;;;14.90;99.90;;;;;;5073708;28;20049;-73
2022/11/10 12:20:55;;;;;;;4.88;2.30;;;14.80;99.90;;;;;;5068546;28;20047;-73
2022/11/10 12:23:42;;;;;;;5.45;1.02;;;14.70;99.90;;;;;;5062911;28;20378;-73
2022/11/10 12:26:42;;;;;;;3.45;0.98;;;14.70;99.90;;;;;;5055561;28;20037;-74
2022/11/10 12:29:32;;;;;;;5.23;3.50;;;14.50;99.90;;;;;;5067305;28;20036;-73
2022/11/10 12:32:10;;;;;;;2.92;1.00;;;14.50;99.90;;;;;;5066767;28;20271;-73
2022/11/10 12:34:42;;;;;;;6.70;2.05;;;14.50;99.90;;;;;;5068363;28;20041;-73
2022/11/10 12:37:17;;;;;;;4.78;1.90;;;14.60;99.90;;;;;;5069971;28;20108;-73
2022/11/10 12:39:53;;;;;;;5.50;1.27;;;14.70;99.90;;;;;;5059224;28;20087;-73
2022/11/10 12:42:27;;;;;;;4.18;0.90;;;14.90;99.90;;;;;;5062925;28;20052;-73
2022/11/10 12:45:14;;;;;;;2.78;0.80;;;15.00;99.90;;;;;;5061094;28;20051;-73
2022/11/10 12:47:45;;;;;;;2.92;0.77;;;15.20;99.90;;;;;;5055157;28;20119;-75
2022/11/10 12:50:49;;;;;;;6.00;1.40;;;;;;;;;;5068963;28;20036;-73
2022/11/10 12:53:22;;;;;;;2.92;0.88;;;;;;;;;;4983359;28;20121;-76
2022/11/10 12:55:54;;;;;;;2.47;0.93;;;;;;;;;;5060033;28;20071;-73
2022/11/10 12:58:20;;;;;;;3.20;0.90;;;;;;;;;;5064787;28;20350;-73
2022/11/10 13:00:55;;;;;;;3.67;1.20;;;;;;;;;;5064563;28;20386;-73
2022/11/10 13:03:31;;;;;;;4.15;1.25;;;;;;;;;;5068841;28;20037;-73
2022/11/10 13:06:02;;;;;;;4.05;0.98;;;;;;;;;;5069305;28;20025;-73
2022/11/10 13:08:31;;;;;;;3.72;0.93;;;;;;;;;;5067071;28;20393;-72
2022/11/10 13:11:02;;;;;;;2.22;1.00;;;;;;;;;;5045318;28;20138;-72
2022/11/10 13:13:28;;;;;;;2.05;1.02;;;;;;;;;;5067417;28;20168;-74
2022/11/10 13:15:55;;;;;;;2.60;1.10;;;;;;;;;;5069004;28;20033;-74
2022/11/10 13:18:23;;;;;;;2.28;1.00;;;;;;;;;;5068724;28;20024;-72
2022/11/10 13:20:50;;;;;;;4.68;1.50;;;;;;;;;;5071876;28;20170;-73
2022/11/10 13:23:22;;;;;;;2.70;1.00;;;;;;;;;;5070617;28;20017;-77
2022/11/10 13:26:02;;;;;;;4.90;1.30;;;;;;;;;;5073033;28;20363;-74
2022/11/10 13:28:46;;;;;;;2.75;1.10;;;;;;;;;;5069493;28;20102;-73
2022/11/10 13:31:27;;;;;;;4.60;1.02;;;;;;;;;;5070736;28;20046;-74
2022/11/10 13:34:02;;;;;;;6.28;1.05;;;;;;;;;;5069801;28;20497;-72
2022/11/10 13:36:40;;;;;;;2.50;0.90;;;;;;;;;;5067246;28;20145;-74
2022/11/10 13:39:21;;;;;;;2.47;0.80;;;;;;;;;;5065295;28;20037;-75
2022/11/10 13:41:52;;;;;;;7.13;0.85;;;;;;;;;;5069763;28;20122;-73
2022/11/10 13:44:31;;;;;;;2.65;0.80;;;;;;;;;;5072634;28;20036;-74